• Join FlightAware (Why Join?)
  • Login
  • US Flag 
04:19AM EDT


 

Airport Tracker/Info


-or-


 

Live Flight TrackerFlight Track Log ✈ N2148C ✈ 15-Sep-2013 ✈ KBHB - KTTN

Flight Track Log - Related Links

Times and Time Zones

All times are in EDT time to prevent confusion due to time zone crossing. See the N2148C flight status page for this flight to view local times or setup timezone preferences in your user account.

Time Position Orientation Groundspeed Altitude Reporting Facility
EDT Latitude Longitude Course Direction KTS MPH feet Rate Location/Type
03:21PM 44.2986 -68.6221 241° Southwest  Level Estimated
03:22PM 44.2798 -68.6714 242° Southwest  Level FlightAware Approximate
03:23PM 44.2611 -68.7207 242° Southwest  Level FlightAware Approximate
03:24PM 44.2423 -68.7699 242° Southwest  Level FlightAware Approximate
03:25PM 44.2235 -68.8192 242° Southwest  Level FlightAware Approximate
03:25PM 44.3119 -68.7319 238° Southwest 97 112 7,800  Level Boston Center
03:26PM 44.2046 -68.8684 242° Southwest  Level FlightAware Approximate
03:26PM 44.3006 -68.7644 244° Southwest 98 113 8,100  Level Boston Center
03:27PM 44.1791 -68.9112 237° Southwest  Level Estimated
03:27PM 44.2789 -68.8006 230° Southwest 122 140 8,100  Level Boston Center
03:28PM 44.1582 -68.9588 239° Southwest  Level FlightAware Approximate
03:28PM 44.2594 -68.8483 240° Southwest 140 161 8,100  Level Boston Center
03:29PM 44.1373 -69.0063 239° Southwest  Level FlightAware Approximate
03:29PM 44.2397 -68.8842 232° Southwest 140 161 8,000  Level Boston Center
03:30PM 44.1165 -69.0538 238° Southwest  Level FlightAware Approximate
03:31PM 44.1990 -68.9624 234° Southwest  Level FlightAware Approximate
03:38PM 44.0372 -69.2835 237° Southwest  Level FlightAware Approximate
03:39PM 44.0157 -69.3303 237° Southwest  Level FlightAware Approximate
03:40PM 43.9941 -69.3771 237° Southwest  Level FlightAware Approximate
03:41PM 43.9724 -69.4238 237° Southwest  Level FlightAware Approximate
03:42PM 43.9508 -69.4705 237° Southwest  Level FlightAware Approximate
03:43PM 43.9291 -69.5172 237° Southwest  Level FlightAware Approximate
03:44PM 43.9075 -69.5638 237° Southwest  Level FlightAware Approximate
03:45PM 43.8858 -69.6104 237° Southwest  Level FlightAware Approximate
03:46PM 43.8640 -69.6570 237° Southwest  Level FlightAware Approximate
03:47PM 43.8423 -69.7035 237° Southwest  Level FlightAware Approximate
03:48PM 43.8206 -69.7500 237° Southwest  Level FlightAware Approximate
03:49PM 43.7988 -69.7964 237° Southwest  Level FlightAware Approximate
03:50PM 43.7770 -69.8429 237° Southwest  Level FlightAware Approximate
03:51PM 43.7552 -69.8893 237° Southwest  Level FlightAware Approximate
03:52PM 43.7334 -69.9356 237° Southwest  Level FlightAware Approximate
03:53PM 43.7115 -69.9819 237° Southwest  Level FlightAware Approximate
03:54PM 43.6896 -70.0282 237° Southwest  Level FlightAware Approximate
03:55PM 43.6678 -70.0745 237° Southwest  Level FlightAware Approximate
03:56PM 43.6459 -70.1207 237° Southwest  Level FlightAware Approximate
03:57PM 43.6239 -70.1669 237° Southwest  Level FlightAware Approximate
03:58PM 43.6020 -70.2130 237° Southwest  Level FlightAware Approximate
03:59PM 43.5800 -70.2592 237° Southwest  Level FlightAware Approximate
04:00PM 43.5580 -70.3053 237° Southwest  Level FlightAware Approximate
04:00PM 43.5500 -70.2333 236° Southwest 143 165 8,100  Level KA90
04:01PM 43.5360 -70.3513 237° Southwest  Level FlightAware Approximate
04:02PM 43.5140 -70.3973 237° Southwest  Level FlightAware Approximate
04:02PM 43.5167 -70.3000 235° Southwest 136 157 8,100  Level KA90
04:03PM 43.4920 -70.4433 237° Southwest  Level FlightAware Approximate
04:03PM 43.5000 -70.3500 245° Southwest 138 159 8,100  Level KA90
04:04PM 43.4700 -70.4893 237° Southwest  Level FlightAware Approximate
04:04PM 43.4667 -70.3833 216° Southwest 137 158 8,100  Level KA90
04:05PM 43.4479 -70.5352 237° Southwest  Level FlightAware Approximate
04:05PM 43.4500 -70.4333 245° Southwest 136 157 8,100  Level KA90
04:06PM 43.4258 -70.5811 236° Southwest  Level FlightAware Approximate
04:06PM 43.4167 -70.4833 227° Southwest 139 160 8,100  Level KA90
04:07PM 43.4000 -70.5167 235° Southwest 136 157 8,100  Level KA90
04:08PM 43.3833 -70.5500 235° Southwest 135 155 8,100  Level KA90
04:09PM 43.3500 -70.6000 227° Southwest 133 153 8,100  Level KA90
04:10PM 43.3333 -70.6333 236° Southwest 131 151 8,100 -60 Level KA90
04:11PM 43.3167 -70.6833 245° Southwest 133 153 8,000 -60 Descending KA90
04:12PM 43.3000 -70.7167 236° Southwest 139 160 8,000  Level KA90
04:13PM 43.2667 -70.7667 228° Southwest 138 159 8,000  Level KA90
04:14PM 43.2500 -70.8000 236° Southwest 140 161 8,000  Level KA90
04:15PM 43.2167 -70.8500 228° Southwest 139 160 8,000  Level KA90
04:16PM 43.2000 -70.8833 236° Southwest 140 161 8,000  Level KA90
04:17PM 43.1833 -70.9333 245° Southwest 140 161 8,000  Level KA90
04:18PM 43.1500 -70.9833 228° Southwest 137 158 8,000  Level KA90
04:19PM 43.1333 -71.0167 236° Southwest 138 159 8,000  Level KA90
04:20PM 43.1000 -71.0500 216° Southwest 139 160 8,000  Level KA90
04:21PM 43.0833 -71.1000 245° Southwest 135 155 8,000  Level KA90
04:22PM 43.0667 -71.1500 245° Southwest 135 155 8,000  Level KA90
04:23PM 43.0333 -71.1833 216° Southwest 135 155 8,000  Level KA90
04:24PM 43.0167 -71.2333 246° West 136 157 8,000  Level KA90
04:25PM 43.0000 -71.2667 236° Southwest 137 158 8,000  Level KA90
04:26PM 42.9667 -71.3000 216° Southwest 137 158 8,000  Level KA90
04:27PM 42.9500 -71.3500 246° West 136 157 8,000  Level KA90
04:28PM 42.9167 -71.3833 216° Southwest 133 153 8,000  Level KA90
04:29PM 42.9000 -71.4333 246° West 131 151 8,000  Level KA90
04:30PM 42.8756 -71.4739 231° Southwest 131 151 8,000  Level Boston Center
04:31PM 42.8511 -71.5197 234° Southwest 131 151 8,000  Level Boston Center
04:32PM 42.8306 -71.5539 231° Southwest 131 151 8,000  Level Boston Center
04:33PM 42.8078 -71.5994 236° Southwest 131 151 8,000  Level Boston Center
04:34PM 42.7853 -71.6367 231° Southwest 136 157 8,000  Level Boston Center
04:35PM 42.7606 -71.6822 234° Southwest 136 157 8,000  Level Boston Center
04:36PM 42.7400 -71.7192 233° Southwest 136 157 8,000  Level Boston Center
04:37PM 42.7153 -71.7619 232° Southwest 131 151 8,000  Level Boston Center
04:38PM 42.6944 -71.7989 233° Southwest 131 151 8,000  Level Boston Center
04:39PM 42.6697 -71.8386 230° Southwest 131 151 8,000  Level Boston Center
04:40PM 42.6492 -71.8756 233° Southwest 137 158 8,000  Level Boston Center
04:41PM 42.6244 -71.9208 233° Southwest 137 158 8,000  Level Boston Center
04:42PM 42.6056 -71.9550 233° Southwest 131 151 8,000 60 Level Boston Center
04:43PM 42.5892 -71.9833 232° Southwest 130 150 8,100 60 Climbing Boston Center
04:43PM 42.5747 -72.0117 235° Southwest 133 153 8,100 -120 Level Boston Center
04:44PM 42.5600 -72.0314 225° Southwest 131 151 8,000  Descending Boston Center
04:44PM 42.5519 -72.0456 232° Southwest 127 146 8,100  Climbing Boston Center
04:45PM 42.5269 -72.0597 203° Southwest 131 151 8,000  Descending Boston Center
04:45PM 42.5164 -72.0628 192° South 148 170 8,100  Climbing Boston Center
04:46PM 42.4894 -72.0544 167° South 144 166 8,000  Descending Boston Center
04:46PM 42.4747 -72.0600 196° South 145 167 8,100  Climbing Boston Center
04:47PM 42.4456 -72.0547 172° South 144 166 8,000  Descending Boston Center
04:47PM 42.4372 -72.0575 194° South 144 166 8,100  Climbing Boston Center
04:48PM 42.4103 -72.0492 167° South 149 171 8,000 -120 Descending Boston Center
04:48PM 42.3956 -72.0550 196° South 146 168 8,000  Level Boston Center
04:49PM 42.3664 -72.0467 168° South 144 166 8,000 60 Level Boston Center
04:50PM 42.3497 -72.0497 188° South 145 167 8,100  Climbing Boston Center
04:50PM 42.3308 -72.0469 174° South 144 166 8,000  Descending Boston Center
04:51PM 42.3081 -72.0469 180° South 143 165 8,100  Climbing Boston Center
04:51PM 42.2914 -72.0444 174° South 144 166 8,000  Descending Boston Center
04:52PM 42.2683 -72.0444 180° South 143 165 8,100  Climbing Boston Center
04:52PM 42.2497 -72.0419 174° South 144 166 8,000  Descending Boston Center
04:53PM 42.2247 -72.0447 185° South 149 171 8,100  Climbing Boston Center
04:53PM 42.2081 -72.0392 166° South 144 166 8,000  Descending Boston Center
04:53PM 42.1892 -72.0394 181° South 144 166 8,100  Climbing Boston Center
04:54PM 42.1683 -72.0367 174° South 144 166 8,000  Descending Boston Center
04:55PM 42.1456 -72.0369 181° South 140 161 8,100  Climbing Boston Center
04:55PM 42.1308 -72.0342 172° South 144 166 8,000 -180 Descending Boston Center
04:56PM 42.1036 -72.0317 176° South 145 167 7,900  Descending Boston Center
04:56PM 42.0892 -72.0344 188° South 144 166 8,000 120 Climbing Boston Center
04:56PM 42.0744 -72.0289 164° South 149 171 8,000 60 Level Boston Center
04:57PM 42.0494 -72.0319 185° South 144 166 8,100  Climbing Boston Center
04:57PM 42.0328 -72.0292 173° South 145 167 8,000 -120 Descending Boston Center
04:58PM 41.9933 -72.0267 177° South 143 165 8,000  Level Boston Center
04:59PM 41.9517 -72.0269 180° South 147 169 8,000  Level Boston Center
05:00PM 41.9097 -72.0189 172° South 147 169 8,000  Level Boston Center
05:01PM 41.8661 -72.0192 180° South 151 174 8,000 -60 Level Boston Center
05:02PM 41.8244 -72.0167 177° South 151 174 7,900  Descending Boston Center
05:04PM 41.7828 -72.0142 177° South 146 168 8,000  Climbing Boston Center
05:05PM 41.7431 -72.0144 180° South 148 170 8,000  Level Boston Center
05:06PM 41.7014 -72.0092 175° South 148 170 8,000  Level Boston Center
05:07PM 41.6617 -72.0067 177° South 146 168 8,000  Level Boston Center
05:08PM 41.6158 -72.0069 180° South 147 169 8,000  Level Boston Center
05:09PM 41.5764 -72.0017 174° South 150 173 8,000  Level Boston Center
05:10PM 41.5411 -72.0214 203° Southwest 127 146 8,000  Level Boston Center
05:11PM 41.5100 -72.0631 225° Southwest 136 157 8,000  Level Boston Center
05:12PM 41.4828 -72.0908 217° Southwest 137 158 8,000  Level Boston Center
05:13PM 41.4558 -72.1272 225° Southwest 135 155 8,000  Level Boston Center
05:15PM 41.4000 -72.2000 224° Southwest 137 158 8,100  Climbing New York TRACON
05:16PM 41.3833 -72.2333 236° Southwest 137 158 8,100  Level New York TRACON
05:17PM 41.3500 -72.2667 217° Southwest 136 157 8,100  Level New York TRACON
05:18PM 41.3167 -72.3000 217° Southwest 141 162 8,100  Level New York TRACON
05:19PM 41.3000 -72.3333 236° Southwest 141 162 8,100 -120 Level New York TRACON
05:20PM 41.2667 -72.3667 217° Southwest 143 165 7,900 -420 Descending New York TRACON
05:21PM 41.2333 -72.4167 228° Southwest 157 181 7,300 -540 Descending New York TRACON
05:22PM 41.2000 -72.4500 217° Southwest 158 182 6,800 -480 Descending New York TRACON
05:23PM 41.1667 -72.5000 228° Southwest 157 181 6,400 -420 Descending New York TRACON
05:24PM 41.1333 -72.5333 217° Southwest 154 177 6,100 -180 Descending New York TRACON
05:25PM 41.1167 -72.5667 236° Southwest 139 160 6,100  Level New York TRACON
05:26PM 41.0833 -72.6000 217° Southwest 140 161 6,100  Level New York TRACON
05:27PM 41.0500 -72.6333 217° Southwest 138 159 6,100  Level New York TRACON
05:28PM 41.0333 -72.6667 236° Southwest 140 161 6,100  Level New York TRACON
05:29PM 41.0000 -72.7000 217° Southwest 140 161 6,100  Level New York TRACON
05:30PM 40.9667 -72.7333 217° Southwest 139 160 6,100  Level New York TRACON
05:31PM 40.9500 -72.7833 246° West 141 162 6,100  Level New York TRACON
05:32PM 40.9333 -72.8167 237° Southwest 135 155 6,100  Level New York TRACON
05:33PM 40.9167 -72.8667 246° West 136 157 6,100  Level New York TRACON
05:34PM 40.9167 -72.9167 270° West 135 155 6,100  Level New York TRACON
05:35PM 40.9167 -72.9667 270° West 137 158 6,100  Level New York TRACON
05:36PM 40.9000 -73.0167 246° West 137 158 6,100  Level New York TRACON
05:37PM 40.9000 -73.0667 270° West 139 160 6,100  Level New York TRACON
05:38PM 40.8833 -73.1167 246° West 137 158 6,100  Level New York TRACON
05:39PM 40.8833 -73.1667 270° West 137 158 6,100  Level New York TRACON
05:40PM 40.8833 -73.2167 270° West 136 157 6,100  Level New York TRACON
05:41PM 40.8667 -73.2667 246° West 136 157 6,100  Level New York TRACON
05:42PM 40.8667 -73.3167 270° West 138 159 6,100  Level New York TRACON
05:43PM 40.8667 -73.3667 270° West 138 159 6,100  Level New York TRACON
05:44PM 40.8500 -73.4000 237° Southwest 138 159 6,100  Level New York TRACON
05:45PM 40.8500 -73.4500 270° West 137 158 6,100  Level New York TRACON
05:46PM 40.8500 -73.5000 270° West 136 157 6,100  Level New York TRACON
05:47PM 40.8333 -73.5500 246° West 145 167 6,100  Level New York TRACON
05:48PM 40.8000 -73.5833 217° Southwest 144 166 6,100  Level New York TRACON
05:49PM 40.7667 -73.6167 217° Southwest 143 165 6,100  Level New York TRACON
05:50PM 40.7333 -73.6500 217° Southwest 142 163 6,100  Level New York TRACON
05:51PM 40.7167 -73.6833 237° Southwest 140 161 6,100  Level New York TRACON
05:52PM 40.6667 -73.7167 207° Southwest 136 157 6,100  Level New York TRACON
05:53PM 40.6500 -73.7500 237° Southwest 121 139 6,100  Level New York TRACON
05:54PM 40.6167 -73.7833 217° Southwest 125 144 6,100  Level New York TRACON
05:55PM 40.5833 -73.8167 217° Southwest 140 161 6,100  Level New York TRACON
05:56PM 40.5500 -73.8333 201° Southwest 143 165 6,100  Level New York TRACON
05:57PM 40.5167 -73.8667 217° Southwest 144 166 6,100  Level New York TRACON
05:58PM 40.4667 -73.8833 194° South 145 167 6,100  Level New York TRACON
05:59PM 40.4333 -73.9167 217° Southwest 145 167 6,100  Level New York TRACON
06:00PM 40.4000 -73.9500 217° Southwest 145 167 6,100 -180 Level New York TRACON
06:02PM 40.3961 -74.0458 267° West  Level FlightAware Approximate
06:09PM 40.3429 -74.3921 255° West  Level Estimated
06:10PM 40.3353 -74.4415 252° West  Level Estimated
06:11PM 40.3276 -74.4909 255° West  Level Estimated
06:12PM 40.3307 -74.5411 275° West  Level FlightAware Approximate
06:12PM 40.2000 -74.4667 251° West 157 181 4,400  Level Philadelphia TRACON
06:13PM 40.3211 -74.5900 237° Southwest  Level Estimated
06:13PM 40.2000 -74.5167 270° West 153 176 4,200  Level Philadelphia TRACON
06:14PM 40.3050 -74.6358 245° Southwest  Level FlightAware Approximate
06:14PM 40.2167 -74.5667 294° West 149 171 4,100  Level Philadelphia TRACON
06:15PM 40.2972 -74.6851 252° West  Level Estimated
06:15PM 40.2333 -74.6167 294° West 156 180 3,800  Level Philadelphia TRACON
06:16PM 40.2845 -74.7327 251° West  Level FlightAware Approximate
06:16PM 40.2500 -74.6667 294° West 165 190 3,200  Level Philadelphia TRACON
06:17PM 40.2719 -74.7803 251° West  Level FlightAware Approximate
06:17PM 40.2667 -74.7167 294° West 138 159 2,300  Level Philadelphia TRACON
06:18PM 40.2667 -74.7667 270° West 129 148 1,500 -480 Descending Philadelphia TRACON
06:19PM 40.2833 -74.8000 303° West 107 123 1,300 -240 Descending Philadelphia TRACON
06:20PM 40.3000 -74.8167 323° Northwest 83 96 1,100 -240 Descending Philadelphia TRACON
06:22PM 40.2767 -74.8135 159° South  Level Estimated
06:29PM 40.2767 -74.8135 291° West  Level Estimated